sensor_id;sensor_type;location;lat;lon;timestamp;pressure;altitude;pressure_sealevel;temperature;humidity
78890;BME280;68279;48.964;14.502;2023-08-17T00:00:24;97281.31;;;15.14;100.00
78890;BME280;68279;48.964;14.502;2023-08-17T00:02:51;97283.31;;;15.09;100.00
78890;BME280;68279;48.964;14.502;2023-08-17T00:05:17;97274.75;;;15.07;100.00
78890;BME280;68279;48.964;14.502;2023-08-17T00:07:43;97280.63;;;15.09;100.00
78890;BME280;68279;48.964;14.502;2023-08-17T00:10:10;97280.84;;;14.98;100.00
78890;BME280;68279;48.964;14.502;2023-08-17T00:12:36;97276.06;;;14.95;100.00
78890;BME280;68279;48.964;14.502;2023-08-17T00:15:03;97273.25;;;15.00;100.00
78890;BME280;68279;48.964;14.502;2023-08-17T00:17:28;97262.19;;;15.02;100.00
78890;BME280;68279;48.964;14.502;2023-08-17T00:19:55;97261.75;;;15.09;100.00
78890;BME280;68279;48.964;14.502;2023-08-17T00:22:20;97254.38;;;15.14;100.00
78890;BME280;68279;48.964;14.502;2023-08-17T00:24:46;97257.16;;;15.09;100.00
78890;BME280;68279;48.964;14.502;2023-08-17T00:27:12;97262.59;;;14.95;100.00
78890;BME280;68279;48.964;14.502;2023-08-17T00:29:38;97258.41;;;15.03;100.00
78890;BME280;68279;48.964;14.502;2023-08-17T00:32:04;97257.78;;;15.06;100.00
78890;BME280;68279;48.964;14.502;2023-08-17T00:34:32;97257.06;;;15.14;100.00
78890;BME280;68279;48.964;14.502;2023-08-17T00:36:57;97255.16;;;15.28;100.00
78890;BME280;68279;48.964;14.502;2023-08-17T00:39:23;97247.31;;;15.41;100.00
78890;BME280;68279;48.964;14.502;2023-08-17T00:41:52;97248.72;;;15.38;100.00
78890;BME280;68279;48.964;14.502;2023-08-17T00:44:18;97250.72;;;15.33;100.00
78890;BME280;68279;48.964;14.502;2023-08-17T00:46:45;97246.78;;;15.16;100.00
78890;BME280;68279;48.964;14.502;2023-08-17T00:49:12;97249.00;;;15.00;100.00
78890;BME280;68279;48.964;14.502;2023-08-17T00:51:37;97245.00;;;14.76;100.00
78890;BME280;68279;48.964;14.502;2023-08-17T00:54:06;97244.69;;;14.77;100.00
78890;BME280;68279;48.964;14.502;2023-08-17T00:56:32;97244.59;;;14.68;100.00
78890;BME280;68279;48.964;14.502;2023-08-17T00:59:06;97243.19;;;14.57;100.00
78890;BME280;68279;48.964;14.502;2023-08-17T01:01:31;97246.97;;;14.70;100.00
78890;BME280;68279;48.964;14.502;2023-08-17T01:04:03;97251.00;;;14.59;100.00
78890;BME280;68279;48.964;14.502;2023-08-17T01:06:29;97248.88;;;14.56;100.00
78890;BME280;68279;48.964;14.502;2023-08-17T01:08:55;97243.50;;;14.69;100.00
78890;BME280;68279;48.964;14.502;2023-08-17T01:11:31;97248.84;;;14.28;100.00
78890;BME280;68279;48.964;14.502;2023-08-17T01:14:10;97244.66;;;14.22;100.00
78890;BME280;68279;48.964;14.502;2023-08-17T01:16:48;97250.25;;;14.26;100.00
78890;BME280;68279;48.964;14.502;2023-08-17T01:19:26;97262.09;;;14.38;100.00
78890;BME280;68279;48.964;14.502;2023-08-17T01:22:03;97260.06;;;14.49;100.00
78890;BME280;68279;48.964;14.502;2023-08-17T01:24:30;97256.53;;;14.49;100.00
78890;BME280;68279;48.964;14.502;2023-08-17T01:27:05;97256.63;;;14.43;100.00
78890;BME280;68279;48.964;14.502;2023-08-17T01:29:33;97257.13;;;14.32;100.00
78890;BME280;68279;48.964;14.502;2023-08-17T01:34:56;97255.31;;;14.27;100.00
78890;BME280;68279;48.964;14.502;2023-08-17T01:37:41;97254.91;;;14.20;100.00
78890;BME280;68279;48.964;14.502;2023-08-17T01:40:26;97263.09;;;14.15;100.00
78890;BME280;68279;48.964;14.502;2023-08-17T01:43:10;97261.88;;;14.07;100.00
78890;BME280;68279;48.964;14.502;2023-08-17T01:45:39;97260.06;;;14.03;100.00
78890;BME280;68279;48.964;14.502;2023-08-17T01:48:05;97259.69;;;14.09;100.00
78890;BME280;68279;48.964;14.502;2023-08-17T01:50:36;97273.06;;;14.14;100.00
78890;BME280;68279;48.964;14.502;2023-08-17T01:53:03;97262.91;;;14.25;100.00
78890;BME280;68279;48.964;14.502;2023-08-17T01:55:30;97258.72;;;14.19;100.00
78890;BME280;68279;48.964;14.502;2023-08-17T01:57:58;97249.25;;;14.08;100.00
78890;BME280;68279;48.964;14.502;2023-08-17T02:00:25;97258.19;;;14.03;100.00
78890;BME280;68279;48.964;14.502;2023-08-17T02:02:56;97250.03;;;14.08;100.00
78890;BME280;68279;48.964;14.502;2023-08-17T02:05:23;97251.63;;;14.09;100.00
78890;BME280;68279;48.964;14.502;2023-08-17T02:07:49;97247.22;;;14.00;100.00
78890;BME280;68279;48.964;14.502;2023-08-17T02:10:25;97243.81;;;13.80;100.00
78890;BME280;68279;48.964;14.502;2023-08-17T02:12:58;97249.19;;;13.80;100.00
78890;BME280;68279;48.964;14.502;2023-08-17T02:15:41;97248.88;;;13.82;100.00
78890;BME280;68279;48.964;14.502;2023-08-17T02:18:11;97247.34;;;13.62;100.00
78890;BME280;68279;48.964;14.502;2023-08-17T02:20:48;97255.97;;;13.59;100.00
78890;BME280;68279;48.964;14.502;2023-08-17T02:23:15;97248.34;;;13.66;100.00
78890;BME280;68279;48.964;14.502;2023-08-17T02:25:41;97242.66;;;13.68;100.00
78890;BME280;68279;48.964;14.502;2023-08-17T02:28:13;97241.91;;;13.48;100.00
78890;BME280;68279;48.964;14.502;2023-08-17T02:30:48;97253.69;;;13.52;100.00
78890;BME280;68279;48.964;14.502;2023-08-17T02:33:26;97256.72;;;13.65;100.00
78890;BME280;68279;48.964;14.502;2023-08-17T02:36:12;97253.91;;;14.02;100.00
78890;BME280;68279;48.964;14.502;2023-08-17T02:38:42;97257.19;;;14.13;100.00
78890;BME280;68279;48.964;14.502;2023-08-17T02:41:07;97246.66;;;14.30;100.00
78890;BME280;68279;48.964;14.502;2023-08-17T02:43:37;97250.06;;;14.36;100.00
78890;BME280;68279;48.964;14.502;2023-08-17T02:46:15;97249.66;;;14.29;100.00
78890;BME280;68279;48.964;14.502;2023-08-17T02:48:48;97253.53;;;14.23;100.00
78890;BME280;68279;48.964;14.502;2023-08-17T02:51:15;97259.50;;;14.20;100.00
78890;BME280;68279;48.964;14.502;2023-08-17T02:53:41;97260.75;;;13.95;100.00
78890;BME280;68279;48.964;14.502;2023-08-17T02:56:07;97266.81;;;13.86;100.00
78890;BME280;68279;48.964;14.502;2023-08-17T02:58:42;97266.00;;;13.72;100.00
78890;BME280;68279;48.964;14.502;2023-08-17T03:01:22;97264.63;;;13.56;100.00
78890;BME280;68279;48.964;14.502;2023-08-17T03:03:47;97269.28;;;13.50;100.00
78890;BME280;68279;48.964;14.502;2023-08-17T03:06:24;97274.94;;;13.49;100.00
78890;BME280;68279;48.964;14.502;2023-08-17T03:08:54;97266.69;;;13.45;100.00
78890;BME280;68279;48.964;14.502;2023-08-17T03:11:25;97265.56;;;13.65;100.00
78890;BME280;68279;48.964;14.502;2023-08-17T03:13:53;97272.47;;;13.71;100.00
78890;BME280;68279;48.964;14.502;2023-08-17T03:16:39;97276.31;;;13.65;100.00
78890;BME280;68279;48.964;14.502;2023-08-17T03:19:05;97274.78;;;13.59;100.00
78890;BME280;68279;48.964;14.502;2023-08-17T03:21:51;97268.72;;;13.53;100.00
78890;BME280;68279;48.964;14.502;2023-08-17T03:24:18;97267.81;;;13.58;100.00
78890;BME280;68279;48.964;14.502;2023-08-17T03:26:49;97263.91;;;13.50;100.00
78890;BME280;68279;48.964;14.502;2023-08-17T03:29:24;97256.28;;;13.57;100.00
78890;BME280;68279;48.964;14.502;2023-08-17T03:32:01;97256.94;;;13.49;100.00
78890;BME280;68279;48.964;14.502;2023-08-17T03:34:27;97267.63;;;13.54;100.00
78890;BME280;68279;48.964;14.502;2023-08-17T03:37:00;97264.53;;;13.80;100.00
78890;BME280;68279;48.964;14.502;2023-08-17T03:39:39;97261.47;;;13.68;100.00
78890;BME280;68279;48.964;14.502;2023-08-17T03:42:10;97259.41;;;13.65;100.00
78890;BME280;68279;48.964;14.502;2023-08-17T03:44:40;97271.88;;;13.74;100.00
78890;BME280;68279;48.964;14.502;2023-08-17T03:47:17;97269.53;;;13.68;100.00
78890;BME280;68279;48.964;14.502;2023-08-17T03:49:44;97278.56;;;13.58;100.00
78890;BME280;68279;48.964;14.502;2023-08-17T03:52:18;97276.72;;;13.40;100.00
78890;BME280;68279;48.964;14.502;2023-08-17T03:55:01;97279.69;;;13.38;100.00
78890;BME280;68279;48.964;14.502;2023-08-17T03:57:41;97280.31;;;13.49;100.00
78890;BME280;68279;48.964;14.502;2023-08-17T04:00:07;97279.06;;;13.60;100.00
78890;BME280;68279;48.964;14.502;2023-08-17T04:02:35;97280.97;;;13.59;100.00
78890;BME280;68279;48.964;14.502;2023-08-17T04:05:08;97290.75;;;13.69;100.00
78890;BME280;68279;48.964;14.502;2023-08-17T04:07:36;97298.75;;;13.74;100.00
78890;BME280;68279;48.964;14.502;2023-08-17T04:10:39;97297.66;;;13.75;100.00
78890;BME280;68279;48.964;14.502;2023-08-17T04:13:12;97290.59;;;13.79;100.00
78890;BME280;68279;48.964;14.502;2023-08-17T04:15:41;97282.13;;;13.72;100.00
78890;BME280;68279;48.964;14.502;2023-08-17T04:18:12;97282.63;;;13.74;100.00
78890;BME280;68279;48.964;14.502;2023-08-17T04:20:39;97289.94;;;13.69;100.00
78890;BME280;68279;48.964;14.502;2023-08-17T04:23:05;97293.88;;;13.76;100.00
78890;BME280;68279;48.964;14.502;2023-08-17T04:25:36;97289.50;;;13.80;100.00
78890;BME280;68279;48.964;14.502;2023-08-17T04:28:03;97291.00;;;13.86;100.00
78890;BME280;68279;48.964;14.502;2023-08-17T04:33:43;97287.41;;;14.37;100.00
78890;BME280;68279;48.964;14.502;2023-08-17T04:36:11;97290.34;;;14.41;100.00
78890;BME280;68279;48.964;14.502;2023-08-17T04:38:44;97295.94;;;14.58;100.00
78890;BME280;68279;48.964;14.502;2023-08-17T04:41:12;97296.03;;;14.81;100.00
78890;BME280;68279;48.964;14.502;2023-08-17T04:43:40;97297.47;;;15.14;100.00
78890;BME280;68279;48.964;14.502;2023-08-17T04:46:08;97304.44;;;15.29;100.00
78890;BME280;68279;48.964;14.502;2023-08-17T04:48:33;97311.84;;;15.46;100.00
78890;BME280;68279;48.964;14.502;2023-08-17T04:51:04;97308.94;;;15.56;100.00
78890;BME280;68279;48.964;14.502;2023-08-17T04:53:36;97303.22;;;15.71;100.00
78890;BME280;68279;48.964;14.502;2023-08-17T04:56:03;97310.69;;;15.97;100.00
78890;BME280;68279;48.964;14.502;2023-08-17T04:58:46;97305.03;;;16.07;100.00
78890;BME280;68279;48.964;14.502;2023-08-17T05:01:13;97312.03;;;16.08;100.00
78890;BME280;68279;48.964;14.502;2023-08-17T05:03:39;97302.88;;;16.18;100.00
78890;BME280;68279;48.964;14.502;2023-08-17T05:06:05;97308.53;;;16.07;100.00
78890;BME280;68279;48.964;14.502;2023-08-17T05:08:31;97320.78;;;16.13;100.00
78890;BME280;68279;48.964;14.502;2023-08-17T05:10:56;97329.03;;;16.08;100.00
78890;BME280;68279;48.964;14.502;2023-08-17T05:13:53;97333.59;;;16.30;100.00
78890;BME280;68279;48.964;14.502;2023-08-17T05:16:32;97341.06;;;16.33;100.00
78890;BME280;68279;48.964;14.502;2023-08-17T05:18:59;97332.84;;;16.38;100.00
78890;BME280;68279;48.964;14.502;2023-08-17T05:21:57;97322.78;;;16.61;100.00
78890;BME280;68279;48.964;14.502;2023-08-17T05:24:24;97328.97;;;16.62;100.00
78890;BME280;68279;48.964;14.502;2023-08-17T05:27:00;97336.41;;;16.56;100.00
78890;BME280;68279;48.964;14.502;2023-08-17T05:30:03;97330.97;;;16.48;100.00
78890;BME280;68279;48.964;14.502;2023-08-17T05:32:31;97330.13;;;16.38;100.00
78890;BME280;68279;48.964;14.502;2023-08-17T05:34:58;97335.91;;;16.46;100.00
78890;BME280;68279;48.964;14.502;2023-08-17T05:37:26;97327.78;;;16.46;100.00
78890;BME280;68279;48.964;14.502;2023-08-17T05:39:54;97338.44;;;16.51;100.00
78890;BME280;68279;48.964;14.502;2023-08-17T05:42:27;97336.38;;;16.48;100.00
78890;BME280;68279;48.964;14.502;2023-08-17T05:44:55;97335.56;;;16.47;100.00
78890;BME280;68279;48.964;14.502;2023-08-17T05:47:30;97326.69;;;16.47;100.00
78890;BME280;68279;48.964;14.502;2023-08-17T05:50:19;97331.09;;;16.42;100.00
78890;BME280;68279;48.964;14.502;2023-08-17T05:52:47;97327.41;;;16.61;100.00
78890;BME280;68279;48.964;14.502;2023-08-17T05:55:15;97329.91;;;16.88;100.00
78890;BME280;68279;48.964;14.502;2023-08-17T05:58:02;97326.94;;;17.16;100.00
78890;BME280;68279;48.964;14.502;2023-08-17T06:00:31;97330.22;;;16.95;100.00
78890;BME280;68279;48.964;14.502;2023-08-17T06:02:58;97329.34;;;17.26;100.00
78890;BME280;68279;48.964;14.502;2023-08-17T06:05:31;97335.16;;;17.02;100.00
78890;BME280;68279;48.964;14.502;2023-08-17T06:07:59;97335.22;;;17.19;100.00
78890;BME280;68279;48.964;14.502;2023-08-17T06:10:41;97325.88;;;17.34;100.00
78890;BME280;68279;48.964;14.502;2023-08-17T06:13:07;97332.28;;;16.90;100.00
78890;BME280;68279;48.964;14.502;2023-08-17T06:15:42;97328.38;;;17.22;100.00
78890;BME280;68279;48.964;14.502;2023-08-17T06:18:19;97319.97;;;17.15;100.00
78890;BME280;68279;48.964;14.502;2023-08-17T06:20:52;97330.28;;;17.30;100.00
78890;BME280;68279;48.964;14.502;2023-08-17T06:23:28;97331.16;;;17.74;100.00
78890;BME280;68279;48.964;14.502;2023-08-17T06:26:08;97337.66;;;18.07;100.00
78890;BME280;68279;48.964;14.502;2023-08-17T06:28:36;97334.78;;;17.69;100.00
78890;BME280;68279;48.964;14.502;2023-08-17T06:31:03;97329.84;;;17.54;100.00
78890;BME280;68279;48.964;14.502;2023-08-17T06:33:31;97329.84;;;17.63;100.00
78890;BME280;68279;48.964;14.502;2023-08-17T06:36:03;97321.13;;;17.74;100.00
78890;BME280;68279;48.964;14.502;2023-08-17T06:38:47;97321.06;;;18.18;100.00
78890;BME280;68279;48.964;14.502;2023-08-17T06:41:13;97329.84;;;18.15;100.00
78890;BME280;68279;48.964;14.502;2023-08-17T06:43:42;97319.47;;;18.17;100.00
78890;BME280;68279;48.964;14.502;2023-08-17T06:46:16;97318.69;;;18.07;100.00
78890;BME280;68279;48.964;14.502;2023-08-17T06:48:43;97322.53;;;18.06;100.00
78890;BME280;68279;48.964;14.502;2023-08-17T06:51:09;97314.22;;;18.20;100.00
78890;BME280;68279;48.964;14.502;2023-08-17T06:53:36;97314.66;;;18.39;100.00
78890;BME280;68279;48.964;14.502;2023-08-17T06:56:05;97320.38;;;18.47;100.00
78890;BME280;68279;48.964;14.502;2023-08-17T06:58:31;97323.38;;;18.45;100.00
78890;BME280;68279;48.964;14.502;2023-08-17T07:00:58;97324.94;;;18.55;100.00
78890;BME280;68279;48.964;14.502;2023-08-17T07:03:31;97330.75;;;18.27;100.00
78890;BME280;68279;48.964;14.502;2023-08-17T07:05:58;97325.88;;;18.03;100.00
78890;BME280;68279;48.964;14.502;2023-08-17T07:08:23;97332.34;;;18.28;100.00
78890;BME280;68279;48.964;14.502;2023-08-17T07:10:50;97328.47;;;18.55;100.00
78890;BME280;68279;48.964;14.502;2023-08-17T07:13:17;97335.13;;;18.66;100.00
78890;BME280;68279;48.964;14.502;2023-08-17T07:15:43;97333.34;;;18.71;100.00
78890;BME280;68279;48.964;14.502;2023-08-17T07:18:10;97336.81;;;18.80;100.00
78890;BME280;68279;48.964;14.502;2023-08-17T07:20:36;97336.78;;;18.88;99.24
78890;BME280;68279;48.964;14.502;2023-08-17T07:23:04;97336.44;;;18.90;100.00
78890;BME280;68279;48.964;14.502;2023-08-17T07:25:36;97340.25;;;19.27;97.69
78890;BME280;68279;48.964;14.502;2023-08-17T07:28:02;97335.50;;;19.45;99.53
78890;BME280;68279;48.964;14.502;2023-08-17T07:30:27;97344.75;;;19.73;95.60
78890;BME280;68279;48.964;14.502;2023-08-17T07:33:01;97337.50;;;19.98;96.40
78890;BME280;68279;48.964;14.502;2023-08-17T07:35:29;97329.28;;;20.07;94.66
78890;BME280;68279;48.964;14.502;2023-08-17T07:38:02;97338.13;;;20.16;95.00
78890;BME280;68279;48.964;14.502;2023-08-17T07:40:28;97333.50;;;20.74;95.46
78890;BME280;68279;48.964;14.502;2023-08-17T07:42:56;97345.09;;;20.96;94.43
78890;BME280;68279;48.964;14.502;2023-08-17T07:45:21;97331.28;;;21.13;93.54
78890;BME280;68279;48.964;14.502;2023-08-17T07:47:57;97336.25;;;21.23;90.37
78890;BME280;68279;48.964;14.502;2023-08-17T07:50:25;97334.97;;;21.45;87.42
78890;BME280;68279;48.964;14.502;2023-08-17T07:52:51;97329.28;;;21.62;85.53
78890;BME280;68279;48.964;14.502;2023-08-17T07:55:17;97326.31;;;21.67;89.18
78890;BME280;68279;48.964;14.502;2023-08-17T07:57:42;97320.19;;;21.98;88.50
78890;BME280;68279;48.964;14.502;2023-08-17T08:00:11;97322.22;;;22.29;83.69
78890;BME280;68279;48.964;14.502;2023-08-17T08:02:43;97326.22;;;22.64;86.24
78890;BME280;68279;48.964;14.502;2023-08-17T08:05:09;97317.78;;;23.00;84.89
78890;BME280;68279;48.964;14.502;2023-08-17T08:07:41;97311.81;;;23.30;82.70
78890;BME280;68279;48.964;14.502;2023-08-17T08:10:08;97307.69;;;23.36;82.08
78890;BME280;68279;48.964;14.502;2023-08-17T08:12:41;97315.56;;;23.41;79.94
78890;BME280;68279;48.964;14.502;2023-08-17T08:15:22;97305.69;;;23.52;80.75
78890;BME280;68279;48.964;14.502;2023-08-17T08:17:47;97302.00;;;23.80;80.06
78890;BME280;68279;48.964;14.502;2023-08-17T08:20:14;97297.25;;;23.96;79.24
78890;BME280;68279;48.964;14.502;2023-08-17T08:22:44;97313.50;;;23.89;82.19
78890;BME280;68279;48.964;14.502;2023-08-17T08:25:10;97315.47;;;24.11;76.43
78890;BME280;68279;48.964;14.502;2023-08-17T08:27:36;97306.16;;;24.32;81.35
78890;BME280;68279;48.964;14.502;2023-08-17T08:30:03;97308.41;;;24.49;75.90
78890;BME280;68279;48.964;14.502;2023-08-17T08:32:34;97304.66;;;24.38;70.71
78890;BME280;68279;48.964;14.502;2023-08-17T08:35:06;97306.75;;;24.44;72.10
78890;BME280;68279;48.964;14.502;2023-08-17T08:37:33;97305.84;;;24.60;72.34
78890;BME280;68279;48.964;14.502;2023-08-17T08:40:01;97303.28;;;24.70;75.93
78890;BME280;68279;48.964;14.502;2023-08-17T08:42:30;97307.88;;;24.89;77.76
78890;BME280;68279;48.964;14.502;2023-08-17T08:45:05;97310.13;;;25.06;76.20
78890;BME280;68279;48.964;14.502;2023-08-17T08:47:36;97309.88;;;25.15;72.22
78890;BME280;68279;48.964;14.502;2023-08-17T08:50:04;97294.22;;;25.42;73.00
78890;BME280;68279;48.964;14.502;2023-08-17T08:53:23;97291.75;;;25.33;72.72
78890;BME280;68279;48.964;14.502;2023-08-17T08:56:03;97296.81;;;25.61;71.97
78890;BME280;68279;48.964;14.502;2023-08-17T08:58:29;97289.78;;;25.90;70.28
78890;BME280;68279;48.964;14.502;2023-08-17T09:01:02;97293.97;;;25.81;69.47
78890;BME280;68279;48.964;14.502;2023-08-17T09:03:32;97289.59;;;25.76;70.65
78890;BME280;68279;48.964;14.502;2023-08-17T09:05:59;97287.13;;;25.97;68.70
78890;BME280;68279;48.964;14.502;2023-08-17T09:08:29;97290.38;;;26.10;69.02
78890;BME280;68279;48.964;14.502;2023-08-17T09:11:09;97291.75;;;26.27;70.67
78890;BME280;68279;48.964;14.502;2023-08-17T09:13:37;97294.31;;;26.13;69.35
78890;BME280;68279;48.964;14.502;2023-08-17T09:16:05;97296.97;;;26.02;65.66
78890;BME280;68279;48.964;14.502;2023-08-17T09:18:36;97298.81;;;25.94;68.08
78890;BME280;68279;48.964;14.502;2023-08-17T09:21:07;97297.53;;;25.85;67.67
78890;BME280;68279;48.964;14.502;2023-08-17T09:23:42;97286.38;;;26.01;68.16
78890;BME280;68279;48.964;14.502;2023-08-17T09:26:11;97290.94;;;26.26;67.04
78890;BME280;68279;48.964;14.502;2023-08-17T09:28:38;97289.41;;;26.29;70.32
78890;BME280;68279;48.964;14.502;2023-08-17T09:31:05;97282.94;;;26.11;69.83
78890;BME280;68279;48.964;14.502;2023-08-17T09:33:32;97285.78;;;26.59;69.89
78890;BME280;68279;48.964;14.502;2023-08-17T09:35:59;97282.13;;;26.88;65.63
78890;BME280;68279;48.964;14.502;2023-08-17T09:38:26;97281.91;;;26.63;69.23
78890;BME280;68279;48.964;14.502;2023-08-17T09:40:52;97271.13;;;26.40;65.24
78890;BME280;68279;48.964;14.502;2023-08-17T09:43:19;97279.50;;;26.54;62.26
78890;BME280;68279;48.964;14.502;2023-08-17T09:45:49;97270.91;;;27.11;64.08
78890;BME280;68279;48.964;14.502;2023-08-17T09:48:18;97279.38;;;26.88;64.33
78890;BME280;68279;48.964;14.502;2023-08-17T09:50:45;97275.06;;;26.91;67.53
78890;BME280;68279;48.964;14.502;2023-08-17T09:53:16;97275.13;;;26.98;63.53
78890;BME280;68279;48.964;14.502;2023-08-17T09:55:45;97272.84;;;27.03;63.60
78890;BME280;68279;48.964;14.502;2023-08-17T09:58:11;97266.97;;;27.08;63.81
78890;BME280;68279;48.964;14.502;2023-08-17T10:00:44;97261.59;;;27.26;62.45
78890;BME280;68279;48.964;14.502;2023-08-17T10:03:11;97255.72;;;27.24;58.35
78890;BME280;68279;48.964;14.502;2023-08-17T10:06:05;97270.22;;;27.25;62.54
78890;BME280;68279;48.964;14.502;2023-08-17T10:08:42;97262.53;;;27.55;64.46
78890;BME280;68279;48.964;14.502;2023-08-17T10:11:12;97268.84;;;27.59;60.53
78890;BME280;68279;48.964;14.502;2023-08-17T10:13:46;97263.13;;;27.20;60.52
78890;BME280;68279;48.964;14.502;2023-08-17T10:16:28;97265.25;;;27.55;61.08
78890;BME280;68279;48.964;14.502;2023-08-17T10:22:06;97266.06;;;27.52;58.44
78890;BME280;68279;48.964;14.502;2023-08-17T10:24:34;97260.97;;;27.58;53.60
78890;BME280;68279;48.964;14.502;2023-08-17T10:27:03;97248.94;;;27.87;53.59
78890;BME280;68279;48.964;14.502;2023-08-17T10:29:29;97250.88;;;27.80;56.85
78890;BME280;68279;48.964;14.502;2023-08-17T10:31:57;97251.34;;;28.17;56.63
78890;BME280;68279;48.964;14.502;2023-08-17T10:34:23;97255.66;;;28.08;57.45
78890;BME280;68279;48.964;14.502;2023-08-17T10:36:49;97257.28;;;28.23;56.02
78890;BME280;68279;48.964;14.502;2023-08-17T10:39:21;97261.25;;;28.40;56.17
78890;BME280;68279;48.964;14.502;2023-08-17T10:41:48;97256.13;;;28.53;51.79
78890;BME280;68279;48.964;14.502;2023-08-17T10:44:14;97253.00;;;28.61;52.32
78890;BME280;68279;48.964;14.502;2023-08-17T10:46:40;97260.88;;;28.95;58.16
78890;BME280;68279;48.964;14.502;2023-08-17T10:49:07;97255.75;;;29.00;52.73
78890;BME280;68279;48.964;14.502;2023-08-17T10:52:07;97263.25;;;28.71;54.81
78890;BME280;68279;48.964;14.502;2023-08-17T10:54:39;97249.47;;;28.68;55.35
78890;BME280;68279;48.964;14.502;2023-08-17T10:57:28;97253.34;;;28.28;54.37
78890;BME280;68279;48.964;14.502;2023-08-17T11:02:40;97246.31;;;28.73;52.06
78890;BME280;68279;48.964;14.502;2023-08-17T11:05:06;97238.06;;;28.44;47.95
78890;BME280;68279;48.964;14.502;2023-08-17T11:07:42;97245.53;;;28.58;55.04
78890;BME280;68279;48.964;14.502;2023-08-17T11:10:13;97244.72;;;28.79;54.28
78890;BME280;68279;48.964;14.502;2023-08-17T11:12:53;97236.84;;;28.88;50.50
78890;BME280;68279;48.964;14.502;2023-08-17T11:15:45;97243.13;;;29.14;50.80
78890;BME280;68279;48.964;14.502;2023-08-17T11:18:13;97242.78;;;29.08;49.86
78890;BME280;68279;48.964;14.502;2023-08-17T11:20:41;97230.56;;;29.09;49.76
78890;BME280;68279;48.964;14.502;2023-08-17T11:23:08;97231.72;;;29.19;53.59
78890;BME280;68279;48.964;14.502;2023-08-17T11:25:34;97239.91;;;29.44;53.37
78890;BME280;68279;48.964;14.502;2023-08-17T11:28:00;97236.28;;;29.68;50.86
78890;BME280;68279;48.964;14.502;2023-08-17T11:30:27;97235.16;;;29.58;51.29
78890;BME280;68279;48.964;14.502;2023-08-17T11:32:54;97243.09;;;29.35;49.65
78890;BME280;68279;48.964;14.502;2023-08-17T11:35:21;97236.75;;;29.42;52.78
78890;BME280;68279;48.964;14.502;2023-08-17T11:37:48;97232.41;;;29.48;53.24
78890;BME280;68279;48.964;14.502;2023-08-17T11:40:14;97241.19;;;28.78;51.23
78890;BME280;68279;48.964;14.502;2023-08-17T11:42:41;97236.09;;;28.66;51.00
78890;BME280;68279;48.964;14.502;2023-08-17T11:45:08;97227.75;;;29.30;52.49
78890;BME280;68279;48.964;14.502;2023-08-17T11:47:41;97232.38;;;29.66;50.09
78890;BME280;68279;48.964;14.502;2023-08-17T11:50:14;97231.66;;;29.40;48.76
78890;BME280;68279;48.964;14.502;2023-08-17T11:52:40;97224.94;;;29.45;44.70
78890;BME280;68279;48.964;14.502;2023-08-17T11:55:07;97236.38;;;29.43;51.96
78890;BME280;68279;48.964;14.502;2023-08-17T11:57:36;97213.41;;;29.75;45.68
78890;BME280;68279;48.964;14.502;2023-08-17T12:00:03;97221.88;;;30.16;48.82
78890;BME280;68279;48.964;14.502;2023-08-17T12:02:32;97220.34;;;30.08;48.79
78890;BME280;68279;48.964;14.502;2023-08-17T12:05:03;97221.00;;;29.49;49.09
78890;BME280;68279;48.964;14.502;2023-08-17T12:07:32;97218.97;;;29.71;52.29
78890;BME280;68279;48.964;14.502;2023-08-17T12:09:57;97218.50;;;29.87;48.09
78890;BME280;68279;48.964;14.502;2023-08-17T12:12:23;97218.34;;;30.15;46.99
78890;BME280;68279;48.964;14.502;2023-08-17T12:14:49;97218.75;;;30.07;48.40
78890;BME280;68279;48.964;14.502;2023-08-17T12:17:18;97216.78;;;30.04;46.74
78890;BME280;68279;48.964;14.502;2023-08-17T12:19:48;97203.38;;;30.09;46.36
78890;BME280;68279;48.964;14.502;2023-08-17T12:22:15;97201.16;;;29.83;43.64
78890;BME280;68279;48.964;14.502;2023-08-17T12:24:41;97206.72;;;29.79;47.47
78890;BME280;68279;48.964;14.502;2023-08-17T12:27:07;97203.88;;;29.90;46.03
78890;BME280;68279;48.964;14.502;2023-08-17T12:29:34;97199.31;;;30.32;45.76
78890;BME280;68279;48.964;14.502;2023-08-17T12:32:02;97196.41;;;29.90;46.96
78890;BME280;68279;48.964;14.502;2023-08-17T12:34:28;97183.38;;;29.91;43.87
78890;BME280;68279;48.964;14.502;2023-08-17T12:36:54;97175.75;;;30.16;48.46
78890;BME280;68279;48.964;14.502;2023-08-17T12:39:20;97182.16;;;29.99;48.56
78890;BME280;68279;48.964;14.502;2023-08-17T12:41:45;97173.97;;;29.88;46.10
78890;BME280;68279;48.964;14.502;2023-08-17T12:44:11;97173.28;;;30.33;44.20
78890;BME280;68279;48.964;14.502;2023-08-17T12:46:40;97173.44;;;30.08;43.10
78890;BME280;68279;48.964;14.502;2023-08-17T12:49:06;97165.19;;;30.01;43.23
78890;BME280;68279;48.964;14.502;2023-08-17T12:51:32;97168.84;;;30.42;43.02
78890;BME280;68279;48.964;14.502;2023-08-17T12:53:57;97162.25;;;30.74;44.51
78890;BME280;68279;48.964;14.502;2023-08-17T12:56:23;97163.50;;;30.69;40.39
78890;BME280;68279;48.964;14.502;2023-08-17T12:58:49;97155.06;;;31.18;41.34
78890;BME280;68279;48.964;14.502;2023-08-17T13:01:16;97159.25;;;31.33;43.66
78890;BME280;68279;48.964;14.502;2023-08-17T13:03:42;97148.25;;;30.92;43.69
78890;BME280;68279;48.964;14.502;2023-08-17T13:06:08;97154.56;;;31.30;43.56
78890;BME280;68279;48.964;14.502;2023-08-17T13:08:33;97151.78;;;30.96;42.82
78890;BME280;68279;48.964;14.502;2023-08-17T13:11:00;97140.06;;;31.22;40.51
78890;BME280;68279;48.964;14.502;2023-08-17T13:13:25;97143.63;;;31.80;42.88